createdAt,value
2019-01-05T00:03:19.309Z,4.53
2019-01-05T00:08:55.434Z,3.33
2019-01-05T00:14:27.063Z,4.73
2019-01-05T00:19:49.493Z,6.40
2019-01-05T00:25:13.620Z,4.50
2019-01-05T00:30:36.703Z,6.00
2019-01-05T00:36:32.702Z,3.83
2019-01-05T00:42:27.711Z,3.07
2019-01-05T00:47:58.167Z,3.60
2019-01-05T00:53:26.832Z,4.40
2019-01-05T00:58:58.181Z,8.43
2019-01-05T01:04:33.077Z,4.17
2019-01-05T01:09:56.835Z,4.97
2019-01-05T01:15:22.188Z,3.80
2019-01-05T01:20:43.194Z,4.10
2019-01-05T01:25:59.823Z,4.00
2019-01-05T01:31:36.195Z,3.57
2019-01-05T01:37:01.151Z,4.13
2019-01-05T01:42:22.974Z,4.27
2019-01-05T01:47:52.446Z,4.60
2019-01-05T01:53:36.304Z,7.60
2019-01-05T01:59:03.909Z,3.43
2019-01-05T02:04:30.505Z,2.93
2019-01-05T02:09:53.136Z,5.13
2019-01-05T02:15:34.523Z,6.20
2019-01-05T02:21:14.572Z,3.20
2019-01-05T02:27:23.975Z,5.73
2019-01-05T02:33:20.370Z,5.13
2019-01-05T02:39:24.892Z,4.33
2019-01-05T02:45:35.743Z,6.77
2019-01-05T02:51:42.500Z,3.57
2019-01-05T02:57:48.811Z,2.97
2019-01-05T03:04:01.789Z,3.90
2019-01-05T03:10:15.669Z,3.40
2019-01-05T03:16:34.744Z,2.87
2019-01-05T03:22:43.876Z,4.40
2019-01-05T03:29:16.082Z,4.37
2019-01-05T03:35:12.861Z,5.77
2019-01-05T03:41:27.646Z,4.07
2019-01-05T03:47:50.307Z,4.13
2019-01-05T03:53:59.643Z,6.90
2019-01-05T04:00:15.726Z,4.60
2019-01-05T07:33:41.179Z,1.10
2019-01-05T07:40:09.875Z,0.90
2019-01-05T07:46:13.901Z,1.17
2019-01-05T07:52:11.832Z,0.90
2019-01-05T07:58:20.783Z,0.80
2019-01-05T08:04:30.483Z,1.00
2019-01-05T08:10:32.330Z,0.90
2019-01-05T08:17:05.051Z,0.80
2019-01-05T08:23:29.288Z,0.80
2019-01-05T08:29:48.839Z,0.90
2019-01-05T08:35:33.087Z,1.10
2019-01-05T08:41:42.082Z,0.80
2019-01-05T08:47:30.447Z,1.13
2019-01-05T08:53:42.643Z,1.00
2019-01-05T08:59:55.057Z,1.00
2019-01-05T09:05:41.767Z,0.97
2019-01-05T09:11:54.421Z,0.80
2019-01-05T09:17:57.403Z,1.00
2019-01-05T09:24:39.524Z,0.83
2019-01-05T09:30:42.494Z,1.00
2019-01-05T09:36:52.492Z,0.80
2019-01-05T09:42:57.642Z,1.10
2019-01-05T09:49:04.448Z,1.10
2019-01-05T09:55:07.351Z,0.90
2019-01-05T10:01:17.048Z,1.00
2019-01-05T10:07:29.823Z,1.10
2019-01-05T10:13:44.683Z,1.00
2019-01-05T10:20:15.768Z,1.10
2019-01-05T10:26:41.007Z,1.00
2019-01-05T10:32:46.983Z,0.93
2019-01-05T10:38:48.004Z,1.00
2019-01-05T10:44:46.418Z,1.10
2019-01-05T10:51:09.131Z,0.90
2019-01-05T10:57:04.507Z,1.00
2019-01-05T11:03:26.267Z,0.90
2019-01-05T11:09:28.076Z,0.80
2019-01-05T11:15:53.302Z,0.80
2019-01-05T11:22:09.828Z,1.13
2019-01-05T11:27:59.765Z,0.90
2019-01-05T11:33:57.540Z,1.00
2019-01-05T11:40:19.785Z,1.20
2019-01-05T11:46:17.054Z,0.97
2019-01-05T11:52:18.640Z,1.00
2019-01-05T11:58:07.388Z,1.27
2019-01-05T12:04:17.282Z,1.10
2019-01-05T12:09:54.828Z,1.07
2019-01-05T12:16:15.155Z,0.90
2019-01-05T12:22:28.075Z,0.80
2019-01-05T12:28:48.602Z,0.90
2019-01-05T12:35:06.295Z,0.90
2019-01-05T12:41:10.474Z,0.90
2019-01-05T12:47:39.149Z,1.00
2019-01-05T12:53:55.896Z,1.10
2019-01-05T12:59:57.439Z,0.80
2019-01-05T13:05:56.889Z,1.07
2019-01-05T13:12:43.170Z,1.00
2019-01-05T13:18:26.063Z,1.17
2019-01-05T13:24:24.395Z,1.07
2019-01-05T13:30:42.518Z,0.90
2019-01-05T13:36:28.808Z,1.10
2019-01-05T13:42:22.659Z,1.10
2019-01-05T13:48:27.507Z,1.00
2019-01-05T13:53:58.982Z,0.90
2019-01-05T13:59:39.289Z,1.00
2019-01-05T14:05:05.795Z,1.00
2019-01-05T14:10:23.786Z,0.87
2019-01-05T14:16:00.971Z,1.20
2019-01-05T14:21:50.432Z,0.90
2019-01-05T14:27:35.767Z,1.10
2019-01-05T14:33:02.544Z,0.93
2019-01-05T14:38:24.948Z,1.00
2019-01-05T14:43:56.824Z,0.90
2019-01-05T14:49:21.211Z,1.03
2019-01-05T14:54:44.138Z,1.23
2019-01-05T15:00:06.882Z,0.90
2019-01-05T15:05:30.742Z,1.00
2019-01-05T15:10:59.174Z,1.50
2019-01-05T15:16:25.411Z,1.00
2019-01-05T15:21:44.207Z,1.10
2019-01-05T15:27:09.759Z,1.23
2019-01-05T15:32:55.878Z,0.90
2019-01-05T15:38:30.826Z,1.13
2019-01-05T15:43:52.096Z,0.87
2019-01-05T15:49:20.616Z,1.00
2019-01-05T15:54:42.776Z,1.40
2019-01-05T16:00:11.852Z,1.23
2019-01-05T16:05:29.584Z,1.00
2019-01-05T16:11:06.965Z,1.40
2019-01-05T16:16:22.635Z,1.10
2019-01-05T16:22:08.379Z,1.57
2019-01-05T16:27:38.619Z,1.13
2019-01-05T16:33:07.596Z,1.53
2019-01-05T16:38:41.751Z,1.00
2019-01-05T16:44:22.076Z,1.27
2019-01-05T16:49:59.622Z,1.87
2019-01-05T16:55:20.903Z,1.57
2019-01-05T17:00:45.067Z,0.97
2019-01-05T17:06:07.688Z,1.30
2019-01-05T17:11:35.427Z,1.07
2019-01-05T17:17:03.578Z,1.40
2019-01-05T17:22:31.309Z,1.67
2019-01-05T17:28:14.808Z,1.30
2019-01-05T17:33:37.511Z,1.40
2019-01-05T17:38:58.296Z,1.50
2019-01-05T17:44:15.069Z,2.33
2019-01-05T17:49:41.254Z,1.20
2019-01-05T17:55:07.325Z,1.10
2019-01-05T18:00:44.667Z,1.80
2019-01-05T18:06:05.732Z,1.50
2019-01-05T18:11:26.470Z,1.60
2019-01-05T18:16:50.924Z,1.20
2019-01-05T18:22:14.142Z,1.47
2019-01-05T18:27:42.759Z,1.83
2019-01-05T18:33:13.808Z,1.33
2019-01-05T18:38:31.609Z,1.50
2019-01-05T18:43:56.209Z,1.60
2019-01-05T18:49:23.565Z,1.70
2019-01-05T18:54:46.175Z,1.67
2019-01-05T19:00:19.980Z,1.67
2019-01-05T19:11:14.628Z,1.20
2019-01-05T19:16:32.306Z,1.30
2019-01-05T19:21:49.553Z,1.20
2019-01-05T19:27:11.740Z,1.50
2019-01-05T19:32:49.942Z,1.60
2019-01-05T19:38:12.375Z,1.50
2019-01-05T19:43:36.546Z,1.63
2019-01-05T19:49:06.274Z,1.40
2019-01-05T19:54:30.325Z,1.17
2019-01-05T19:59:52.535Z,1.67
2019-01-05T20:05:20.717Z,1.73
2019-01-05T20:10:59.543Z,2.30
2019-01-05T20:16:38.940Z,1.20
2019-01-05T20:22:07.224Z,1.80
2019-01-05T20:27:39.676Z,2.07
2019-01-05T20:33:05.545Z,2.03
2019-01-05T20:38:46.585Z,1.10
2019-01-05T20:44:38.145Z,1.63
2019-01-05T20:49:59.802Z,2.10
2019-01-05T20:55:29.999Z,1.20
2019-01-05T21:01:10.464Z,1.30
2019-01-05T21:06:42.425Z,1.27
2019-01-05T21:12:05.638Z,1.40
2019-01-05T21:17:33.982Z,1.77
2019-01-05T21:23:03.404Z,1.70
2019-01-05T21:29:00.275Z,1.50
2019-01-05T21:34:48.071Z,2.13
2019-01-05T21:40:26.925Z,1.20
2019-01-05T21:46:10.999Z,1.50
2019-01-05T21:51:33.534Z,1.30
2019-01-05T21:56:56.807Z,1.70
2019-01-05T22:02:35.151Z,1.60
2019-01-05T22:08:01.605Z,2.30
2019-01-05T22:13:25.435Z,1.20
2019-01-05T22:18:52.750Z,1.33
2019-01-05T22:24:58.628Z,1.70
2019-01-05T22:30:29.567Z,1.77
2019-01-05T22:36:24.379Z,1.03
2019-01-05T22:41:51.552Z,1.80
2019-01-05T22:47:27.412Z,1.73
2019-01-05T22:52:51.315Z,1.20
2019-01-05T22:58:12.879Z,1.40
2019-01-05T23:03:36.679Z,1.77
2019-01-05T23:09:01.175Z,2.07
2019-01-05T23:14:32.756Z,1.63
2019-01-05T23:20:11.999Z,2.27
2019-01-05T23:26:02.211Z,2.17
2019-01-05T23:31:27.903Z,2.53
2019-01-05T23:36:51.647Z,1.80
2019-01-05T23:42:30.696Z,2.77
2019-01-05T23:48:09.329Z,2.10
2019-01-05T23:53:35.133Z,2.70
2019-01-05T23:59:05.948Z,3.67
